Time;durP1;ratioP1;P1;durP2;ratioP2;P2;SDS_P1;SDS_P2;PMS_P1;PMS_P2;Temp;Humidity;BMP_temperature;BMP_pressure;BME280_temperature;BME280_humidity;BME280_pressure;Samples;Min_cycle;Max_cycle;Signal;HPM_P1;HPM_P2
2023/01/11 00:01:26;;;;;;;0.40;0.23;;;9.50;99.90;;;;;;4917183;29;20202;-70
2023/01/11 00:03:54;;;;;;;0.50;0.30;;;9.50;99.90;;;;;;4917274;29;20206;-70
2023/01/11 00:06:19;;;;;;;0.30;0.30;;;9.50;99.90;;;;;;4931866;29;20185;-70
2023/01/11 00:08:45;;;;;;;0.63;0.40;;;9.50;99.90;;;;;;4919843;29;20272;-70
2023/01/11 00:11:14;;;;;;;0.33;0.33;;;9.40;99.90;;;;;;4919616;29;20182;-71
2023/01/11 00:13:42;;;;;;;0.50;0.40;;;9.50;99.90;;;;;;4919923;29;20190;-71
2023/01/11 00:16:08;;;;;;;0.67;0.20;;;9.60;99.90;;;;;;4915788;29;20272;-71
2023/01/11 00:18:37;;;;;;;0.33;0.30;;;9.50;99.90;;;;;;4917468;29;20206;-71
2023/01/11 00:21:04;;;;;;;0.30;0.30;;;9.50;99.90;;;;;;4930798;29;20294;-71
2023/01/11 00:23:36;;;;;;;0.30;0.30;;;9.50;99.90;;;;;;4918594;29;20206;-70
2023/01/11 00:26:04;;;;;;;0.70;0.30;;;9.70;99.90;;;;;;4915180;29;20186;-71
2023/01/11 00:28:31;;;;;;;0.40;0.30;;;9.60;99.90;;;;;;4920079;29;20189;-71
2023/01/11 00:30:57;;;;;;;0.33;0.30;;;9.60;99.90;;;;;;4919821;29;20193;-71
2023/01/11 00:33:23;;;;;;;0.50;0.40;;;9.70;99.90;;;;;;4919991;29;20178;-71
2023/01/11 00:35:52;;;;;;;0.87;0.37;;;9.60;99.90;;;;;;4919858;29;20186;-70
2023/01/11 00:49:38;;;;;;;0.40;0.40;;;9.70;99.90;;;;;;4920920;29;20249;-71
2023/01/11 00:52:07;;;;;;;0.40;0.30;;;9.80;99.90;;;;;;4907734;29;20207;-71
2023/01/11 00:54:36;;;;;;;1.10;0.40;;;9.90;99.90;;;;;;4919753;29;20214;-71
2023/01/11 00:57:06;;;;;;;0.33;0.30;;;9.80;99.90;;;;;;4919085;29;20222;-71
2023/01/11 00:59:34;;;;;;;0.40;0.40;;;9.80;99.90;;;;;;4919382;29;20182;-71
2023/01/11 01:02:03;;;;;;;0.73;0.60;;;9.80;99.90;;;;;;4918840;29;20289;-71
2023/01/11 01:04:29;;;;;;;0.70;0.50;;;9.80;99.90;;;;;;4913516;29;20170;-72
2023/01/11 01:06:54;;;;;;;0.70;0.60;;;9.70;99.90;;;;;;4917506;29;20351;-71
2023/01/11 01:09:20;;;;;;;1.13;0.70;;;9.70;99.90;;;;;;4917332;29;20277;-71
2023/01/11 01:11:46;;;;;;;1.20;0.50;;;9.70;99.90;;;;;;4919315;29;20196;-70
2023/01/11 01:14:32;;;;;;;0.80;0.70;;;9.60;99.90;;;;;;4918985;29;20190;-71
2023/01/11 01:17:01;;;;;;;0.83;0.67;;;9.60;99.90;;;;;;4918273;29;20220;-70
2023/01/11 01:19:28;;;;;;;0.93;0.60;;;9.60;99.90;;;;;;4918889;29;20198;-71
2023/01/11 01:21:56;;;;;;;0.70;0.63;;;9.60;99.90;;;;;;4918408;29;20263;-71
2023/01/11 01:24:22;;;;;;;0.97;0.70;;;9.60;99.90;;;;;;4916998;29;20198;-71
2023/01/11 01:26:48;;;;;;;0.50;0.50;;;9.60;99.90;;;;;;4919043;29;20197;-71
2023/01/11 01:29:16;;;;;;;0.77;0.67;;;9.60;99.90;;;;;;4917749;29;20193;-71
2023/01/11 01:31:45;;;;;;;0.60;0.53;;;9.60;99.90;;;;;;4919140;29;20477;-71
2023/01/11 01:34:11;;;;;;;1.90;0.63;;;9.60;99.90;;;;;;4919074;29;20241;-71
2023/01/11 01:36:36;;;;;;;0.60;0.60;;;9.60;99.90;;;;;;4917030;29;20217;-70
2023/01/11 01:39:04;;;;;;;0.50;0.50;;;9.60;99.90;;;;;;4918225;29;20182;-71
2023/01/11 01:41:30;;;;;;;1.20;0.80;;;9.60;99.90;;;;;;4918941;29;20233;-71
2023/01/11 01:44:34;;;;;;;1.07;0.80;;;9.60;99.90;;;;;;4919110;29;20198;-71
2023/01/11 01:47:02;;;;;;;1.00;0.67;;;9.60;99.90;;;;;;4916131;29;20193;-71
2023/01/11 01:49:27;;;;;;;1.03;0.80;;;9.60;99.90;;;;;;4918789;29;20509;-72
2023/01/11 01:51:58;;;;;;;1.20;0.63;;;9.60;99.90;;;;;;4918587;29;20276;-71
2023/01/11 01:54:33;;;;;;;1.97;0.80;;;9.60;99.90;;;;;;4918702;29;20178;-71
2023/01/11 01:57:05;;;;;;;0.93;0.70;;;9.70;99.90;;;;;;4916074;29;20223;-71
2023/01/11 01:59:34;;;;;;;0.73;0.60;;;9.70;99.90;;;;;;4917888;29;20182;-70
2023/01/11 02:02:00;;;;;;;0.83;0.70;;;9.70;99.90;;;;;;4916424;29;20206;-71
2023/01/11 02:04:29;;;;;;;1.08;0.77;;;9.70;99.90;;;;;;4917709;29;20186;-71
2023/01/11 02:07:03;;;;;;;0.87;0.60;;;9.80;99.90;;;;;;4918524;29;20178;-71
2023/01/11 02:09:38;;;;;;;0.70;0.60;;;9.80;99.90;;;;;;4918572;29;20369;-71
2023/01/11 02:12:06;;;;;;;1.03;0.73;;;9.80;99.90;;;;;;4917899;29;20218;-71
2023/01/11 02:14:36;;;;;;;1.97;0.70;;;9.80;99.90;;;;;;4918308;29;20270;-71
2023/01/11 02:17:04;;;;;;;0.87;0.67;;;9.80;99.90;;;;;;4917381;29;20205;-71
2023/01/11 02:19:51;;;;;;;0.40;0.40;;;9.80;99.90;;;;;;4937010;29;20192;-71
2023/01/11 02:22:17;;;;;;;0.97;0.60;;;9.90;99.90;;;;;;4913974;29;20274;-71
2023/01/11 02:24:47;;;;;;;2.00;0.60;;;9.90;99.90;;;;;;4914031;29;20177;-72
2023/01/11 02:27:35;;;;;;;0.80;0.40;;;9.90;99.90;;;;;;4917889;29;20185;-71
2023/01/11 02:30:18;;;;;;;0.52;0.50;;;9.90;99.90;;;;;;4917735;29;20212;-70
2023/01/11 02:33:02;;;;;;;1.60;0.50;;;10.00;99.90;;;;;;4932642;29;20189;-71
2023/01/11 02:35:47;;;;;;;1.07;0.60;;;10.00;99.90;;;;;;4912779;29;20178;-71
2023/01/11 02:38:27;;;;;;;1.00;0.57;;;10.00;99.90;;;;;;4909024;29;20238;-71
2023/01/11 02:40:52;;;;;;;1.00;0.47;;;10.00;99.90;;;;;;4916777;29;20229;-72
2023/01/11 02:46:42;;;;;;;0.77;0.52;;;10.00;99.90;;;;;;4918036;29;20210;-71
2023/01/11 02:49:17;;;;;;;0.53;0.53;;;10.10;99.90;;;;;;4913922;29;20178;-71
2023/01/11 02:51:57;;;;;;;0.87;0.53;;;10.10;99.90;;;;;;4924798;29;20188;-72
2023/01/11 02:54:26;;;;;;;0.60;0.50;;;10.10;99.90;;;;;;4912067;29;20249;-71
2023/01/11 02:56:59;;;;;;;0.80;0.40;;;10.10;99.90;;;;;;4917683;29;20221;-72
2023/01/11 02:59:33;;;;;;;1.77;0.50;;;10.20;99.90;;;;;;4914641;29;20170;-71
2023/01/11 03:02:02;;;;;;;0.95;0.60;;;10.10;99.90;;;;;;4916579;29;20224;-71
2023/01/11 03:04:38;;;;;;;0.65;0.50;;;10.20;99.90;;;;;;4915782;29;20225;-71
2023/01/11 03:07:10;;;;;;;1.25;0.70;;;10.20;99.90;;;;;;4913969;29;20175;-71
2023/01/11 03:09:42;;;;;;;0.57;0.47;;;10.20;99.90;;;;;;4911148;29;20209;-71
2023/01/11 03:15:37;;;;;;;1.40;0.70;;;10.30;99.90;;;;;;4910095;29;20274;-71
2023/01/11 03:18:13;;;;;;;0.98;0.70;;;10.30;99.90;;;;;;4915091;29;20538;-71
2023/01/11 03:20:51;;;;;;;0.70;0.50;;;10.30;99.90;;;;;;4915856;29;20209;-71
2023/01/11 03:23:29;;;;;;;0.75;0.60;;;10.30;99.90;;;;;;4916358;29;20182;-71
2023/01/11 03:26:10;;;;;;;0.63;0.50;;;10.40;99.90;;;;;;4905939;29;20252;-72
2023/01/11 03:28:49;;;;;;;1.20;0.80;;;10.40;99.90;;;;;;4916504;29;20186;-71
2023/01/11 03:31:14;;;;;;;0.75;0.60;;;10.40;99.90;;;;;;4916942;29;20186;-72
2023/01/11 03:34:08;;;;;;;0.52;0.40;;;10.50;99.90;;;;;;4914121;29;20189;-71
2023/01/11 03:37:03;;;;;;;0.70;0.50;;;10.50;99.90;;;;;;4915655;29;20190;-72
2023/01/11 03:39:33;;;;;;;0.55;0.32;;;10.50;99.90;;;;;;4917131;29;20205;-71
2023/01/11 03:42:00;;;;;;;0.20;0.20;;;10.60;99.90;;;;;;4913927;29;20210;-71
2023/01/11 03:44:30;;;;;;;0.10;0.10;;;10.70;99.90;;;;;;4914790;29;20200;-72
2023/01/11 03:47:04;;;;;;;0.10;0.10;;;10.80;99.90;;;;;;4919106;29;20174;-72
2023/01/11 03:49:35;;;;;;;0.10;0.10;;;11.10;99.90;;;;;;4920274;29;20241;-72
2023/01/11 03:52:04;;;;;;;0.22;0.22;;;11.20;99.90;;;;;;4919138;29;20213;-72
2023/01/11 03:54:32;;;;;;;0.32;0.22;;;11.30;99.90;;;;;;4918523;29;20194;-72
2023/01/11 03:57:09;;;;;;;0.38;0.10;;;11.50;99.90;;;;;;4920392;29;20277;-72
2023/01/11 03:59:36;;;;;;;0.55;0.10;;;11.60;99.90;;;;;;4920972;29;20213;-73
2023/01/11 04:02:13;;;;;;;0.57;0.10;;;11.70;99.90;;;;;;4920535;29;20198;-71
2023/01/11 04:04:40;;;;;;;0.10;0.10;;;11.80;99.90;;;;;;4920611;29;20185;-72
2023/01/11 04:07:06;;;;;;;0.10;0.10;;;11.90;99.90;;;;;;4919519;29;20182;-70
2023/01/11 04:09:31;;;;;;;0.55;0.17;;;12.00;99.90;;;;;;4919901;29;20182;-70
2023/01/11 04:11:57;;;;;;;0.00;0.00;;;12.10;99.90;;;;;;4920302;29;20206;-72
2023/01/11 04:14:25;;;;;;;0.10;0.10;;;12.10;99.90;;;;;;4920138;29;20177;-72
2023/01/11 04:16:50;;;;;;;0.20;0.20;;;12.20;99.90;;;;;;4919731;29;20186;-72
2023/01/11 04:19:16;;;;;;;0.60;0.50;;;12.10;99.90;;;;;;4920092;29;20269;-69
2023/01/11 04:21:42;;;;;;;0.32;0.20;;;12.20;99.90;;;;;;4917304;29;20213;-73
2023/01/11 04:24:07;;;;;;;0.20;0.20;;;12.30;99.90;;;;;;4918339;29;20182;-72
2023/01/11 04:26:33;;;;;;;0.55;0.30;;;12.30;99.90;;;;;;4919372;29;20183;-72
2023/01/11 04:28:58;;;;;;;0.35;0.20;;;12.40;99.90;;;;;;4920149;29;20190;-72
2023/01/11 04:31:26;;;;;;;0.30;0.20;;;12.40;99.90;;;;;;4919460;29;20198;-72
2023/01/11 04:33:54;;;;;;;0.20;0.20;;;12.40;99.90;;;;;;4918627;29;20285;-72
2023/01/11 04:36:20;;;;;;;0.20;0.20;;;12.40;99.90;;;;;;4919981;29;20490;-71
2023/01/11 04:38:50;;;;;;;0.20;0.20;;;12.40;99.90;;;;;;4921791;29;20301;-70
2023/01/11 04:44:00;;;;;;;0.20;0.10;;;12.50;99.90;;;;;;4920713;29;20209;-70
2023/01/11 04:46:25;;;;;;;0.10;0.10;;;12.40;99.90;;;;;;4919649;29;20342;-70
2023/01/11 04:48:55;;;;;;;0.50;0.30;;;12.40;99.90;;;;;;4919342;29;20186;-70
2023/01/11 04:51:21;;;;;;;0.20;0.20;;;12.40;99.90;;;;;;4919093;29;20210;-70
2023/01/11 04:53:50;;;;;;;0.45;0.10;;;12.30;99.90;;;;;;4919835;29;20233;-71
2023/01/11 04:56:16;;;;;;;0.20;0.10;;;12.30;99.90;;;;;;4919037;29;20265;-70
2023/01/11 04:58:43;;;;;;;0.20;0.20;;;12.20;99.90;;;;;;4918435;29;20189;-70
2023/01/11 05:01:11;;;;;;;0.20;0.20;;;12.20;99.90;;;;;;4916128;29;20199;-69
2023/01/11 05:03:37;;;;;;;0.28;0.20;;;12.10;99.90;;;;;;4917285;29;20198;-71
2023/01/11 05:06:03;;;;;;;1.13;0.20;;;12.10;99.90;;;;;;4918052;29;20185;-71
2023/01/11 05:08:30;;;;;;;0.40;0.30;;;12.00;99.90;;;;;;4918352;29;20222;-71
2023/01/11 05:11:00;;;;;;;1.00;0.47;;;12.00;99.90;;;;;;4920308;29;20257;-70
2023/01/11 05:13:40;;;;;;;0.63;0.20;;;12.00;99.90;;;;;;4919198;29;20178;-71
2023/01/11 05:16:26;;;;;;;0.30;0.20;;;11.90;99.90;;;;;;4919210;29;20192;-74
2023/01/11 05:19:00;;;;;;;0.40;0.30;;;11.90;99.90;;;;;;4918439;29;20208;-70
2023/01/11 05:21:32;;;;;;;0.30;0.22;;;11.90;99.90;;;;;;4919678;29;20198;-72
2023/01/11 05:24:07;;;;;;;0.10;0.10;;;11.90;99.90;;;;;;4918606;29;20277;-73
2023/01/11 05:26:35;;;;;;;0.10;0.10;;;11.90;99.90;;;;;;4912237;29;20242;-73
2023/01/11 05:29:04;;;;;;;0.10;0.10;;;11.90;99.90;;;;;;4915501;29;20197;-74
2023/01/11 05:31:31;;;;;;;1.45;0.10;;;11.90;99.90;;;;;;4911310;29;20178;-73
2023/01/11 05:34:00;;;;;;;0.00;0.00;;;11.90;99.90;;;;;;4917865;29;20189;-74
2023/01/11 05:36:26;;;;;;;0.32;0.17;;;11.90;99.90;;;;;;4918651;29;20276;-74
2023/01/11 05:38:57;;;;;;;0.15;0.15;;;11.90;99.90;;;;;;4918756;29;20189;-74
2023/01/11 05:41:27;;;;;;;0.40;0.30;;;11.90;99.90;;;;;;4915753;29;20195;-74
2023/01/11 05:46:46;;;;;;;0.30;0.20;;;12.00;99.90;;;;;;4918173;29;20230;-71
2023/01/11 05:49:13;;;;;;;0.45;0.30;;;12.00;99.90;;;;;;4918073;29;20210;-72
2023/01/11 05:51:42;;;;;;;0.45;0.30;;;12.00;99.90;;;;;;4918132;29;20182;-71
2023/01/11 05:54:15;;;;;;;0.20;0.20;;;12.00;99.90;;;;;;4918777;29;20182;-71
2023/01/11 05:56:41;;;;;;;0.35;0.20;;;12.00;99.90;;;;;;4913362;29;20204;-72
2023/01/11 05:59:07;;;;;;;0.30;0.17;;;12.10;99.90;;;;;;4918327;29;20181;-72
2023/01/11 06:01:34;;;;;;;0.40;0.40;;;12.10;99.90;;;;;;4918238;29;20226;-71
2023/01/11 06:04:02;;;;;;;0.30;0.20;;;12.10;99.90;;;;;;4918329;29;20179;-72
2023/01/11 06:06:28;;;;;;;0.52;0.30;;;12.10;99.90;;;;;;4919663;29;20362;-71
2023/01/11 06:08:56;;;;;;;0.40;0.30;;;12.10;99.90;;;;;;4916778;29;20209;-71
2023/01/11 06:11:21;;;;;;;0.47;0.20;;;12.10;99.90;;;;;;4918357;29;20219;-71
2023/01/11 06:13:47;;;;;;;0.75;0.28;;;12.20;99.90;;;;;;4925226;29;20257;-71
2023/01/11 06:16:18;;;;;;;0.47;0.20;;;12.20;99.90;;;;;;4915710;29;20192;-72
2023/01/11 06:18:46;;;;;;;0.20;0.20;;;12.10;99.90;;;;;;4915378;29;20182;-72
2023/01/11 06:21:15;;;;;;;0.50;0.20;;;12.20;99.90;;;;;;4918432;29;20221;-75
2023/01/11 06:23:44;;;;;;;0.43;0.20;;;12.20;99.90;;;;;;4916938;29;20174;-72
2023/01/11 06:26:12;;;;;;;0.30;0.20;;;12.20;99.90;;;;;;4917469;29;20182;-73
2023/01/11 06:28:39;;;;;;;0.32;0.20;;;12.20;99.90;;;;;;4917348;29;20198;-73
2023/01/11 06:31:07;;;;;;;0.28;0.20;;;12.30;99.90;;;;;;4918139;29;20182;-74
2023/01/11 06:33:33;;;;;;;0.20;0.20;;;12.30;99.90;;;;;;4917959;29;20315;-75
2023/01/11 06:36:05;;;;;;;0.30;0.30;;;12.30;99.90;;;;;;4917627;29;20193;-73
2023/01/11 06:38:31;;;;;;;0.30;0.30;;;12.40;99.90;;;;;;4918127;29;20194;-75
2023/01/11 06:41:07;;;;;;;0.30;0.20;;;12.40;99.90;;;;;;4919764;29;20214;-73
2023/01/11 06:43:33;;;;;;;0.30;0.30;;;12.40;99.90;;;;;;4921526;29;20385;-73
2023/01/11 06:46:01;;;;;;;0.30;0.28;;;12.40;99.90;;;;;;4917818;29;20192;-74
2023/01/11 06:48:29;;;;;;;0.28;0.25;;;12.40;99.90;;;;;;4917448;29;20264;-73
2023/01/11 06:50:57;;;;;;;0.40;0.40;;;12.40;99.90;;;;;;4915236;29;20209;-74
2023/01/11 06:53:26;;;;;;;0.30;0.30;;;12.40;99.90;;;;;;4925662;29;20204;-75
2023/01/11 06:55:53;;;;;;;0.68;0.43;;;12.50;99.90;;;;;;4916896;29;20198;-74
2023/01/11 06:58:23;;;;;;;0.40;0.30;;;12.50;99.90;;;;;;4913350;29;20183;-73
2023/01/11 07:00:53;;;;;;;0.80;0.60;;;12.50;99.90;;;;;;4913855;29;20206;-73
2023/01/11 07:03:20;;;;;;;0.50;0.50;;;12.50;99.90;;;;;;4915858;29;20253;-74
2023/01/11 07:05:48;;;;;;;1.38;0.47;;;12.50;99.90;;;;;;4917475;29;20178;-73
2023/01/11 07:08:14;;;;;;;0.40;0.40;;;12.50;99.90;;;;;;4917497;29;20174;-73
2023/01/11 07:10:42;;;;;;;0.40;0.40;;;12.50;99.90;;;;;;4917892;29;20206;-74
2023/01/11 07:13:10;;;;;;;1.67;0.50;;;12.50;99.90;;;;;;4921555;29;20190;-75
2023/01/11 07:15:35;;;;;;;0.50;0.30;;;12.50;99.90;;;;;;4918590;29;20178;-72
2023/01/11 07:18:04;;;;;;;0.65;0.50;;;12.50;99.90;;;;;;4917047;29;20269;-74
2023/01/11 07:20:32;;;;;;;0.20;0.20;;;12.50;99.90;;;;;;4920594;29;20221;-74
2023/01/11 07:22:59;;;;;;;0.60;0.40;;;12.50;99.90;;;;;;4917713;29;20205;-73
2023/01/11 07:25:27;;;;;;;0.28;0.25;;;12.60;99.90;;;;;;4936045;29;20197;-73
2023/01/11 07:28:00;;;;;;;0.20;0.20;;;12.50;99.90;;;;;;4920995;29;20210;-74
2023/01/11 07:30:31;;;;;;;0.40;0.40;;;12.50;99.90;;;;;;4920772;29;20265;-74
2023/01/11 07:33:00;;;;;;;0.45;0.30;;;12.50;99.90;;;;;;4921163;29;20226;-74
2023/01/11 07:35:31;;;;;;;0.50;0.30;;;12.40;99.90;;;;;;4920888;29;20227;-76
2023/01/11 07:37:56;;;;;;;0.70;0.50;;;12.40;99.90;;;;;;4920690;29;20170;-75
2023/01/11 07:40:24;;;;;;;0.93;0.32;;;12.50;99.90;;;;;;4920548;29;20193;-73
2023/01/11 07:43:13;;;;;;;1.30;0.38;;;12.40;99.90;;;;;;4931162;29;20198;-74
2023/01/11 07:45:47;;;;;;;0.40;0.30;;;12.40;99.90;;;;;;4902702;29;20201;-74
2023/01/11 07:48:15;;;;;;;0.45;0.25;;;12.40;99.90;;;;;;4920290;29;20178;-73
2023/01/11 07:50:43;;;;;;;0.43;0.30;;;12.40;99.90;;;;;;4920522;29;20249;-73
2023/01/11 07:53:09;;;;;;;0.10;0.10;;;12.40;99.90;;;;;;4920566;29;20205;-74
2023/01/11 07:55:35;;;;;;;0.22;0.20;;;12.40;99.90;;;;;;4917817;29;20320;-74
2023/01/11 07:58:02;;;;;;;0.30;0.17;;;12.40;99.90;;;;;;4920402;29;20242;-73
2023/01/11 08:00:28;;;;;;;0.10;0.10;;;12.40;99.90;;;;;;4903063;29;20225;-74
2023/01/11 08:02:56;;;;;;;0.30;0.20;;;12.40;99.90;;;;;;4917022;29;20229;-74
2023/01/11 08:05:22;;;;;;;0.50;0.40;;;12.40;99.90;;;;;;4920226;29;20190;-74
2023/01/11 08:07:48;;;;;;;0.32;0.30;;;12.40;99.90;;;;;;4917639;29;20189;-74
2023/01/11 08:10:14;;;;;;;0.35;0.32;;;12.40;99.90;;;;;;4905918;29;20202;-74
2023/01/11 08:15:35;;;;;;;0.43;0.38;;;12.30;99.90;;;;;;4920378;29;20200;-75
2023/01/11 08:18:02;;;;;;;1.58;0.40;;;12.30;99.90;;;;;;4919367;29;20221;-77
2023/01/11 08:20:28;;;;;;;1.42;0.88;;;12.30;99.90;;;;;;4920105;29;20178;-76
2023/01/11 08:22:59;;;;;;;0.80;0.60;;;12.20;99.90;;;;;;4919841;29;20226;-75
2023/01/11 08:25:27;;;;;;;0.85;0.63;;;12.30;99.90;;;;;;4919821;29;20174;-75
2023/01/11 08:27:52;;;;;;;2.20;0.70;;;12.30;99.90;;;;;;4919834;29;20189;-75
2023/01/11 08:30:18;;;;;;;0.90;0.50;;;12.30;99.90;;;;;;4918485;29;20210;-74
2023/01/11 08:32:43;;;;;;;0.75;0.40;;;12.30;99.90;;;;;;4919598;29;20216;-75
2023/01/11 08:35:12;;;;;;;0.40;0.38;;;12.30;99.90;;;;;;4920099;29;20182;-73
2023/01/11 08:37:37;;;;;;;0.63;0.30;;;12.30;99.90;;;;;;4920126;29;20296;-76
2023/01/11 08:40:06;;;;;;;0.75;0.40;;;12.20;99.90;;;;;;4919273;29;20218;-75
2023/01/11 08:42:32;;;;;;;0.50;0.30;;;12.20;99.90;;;;;;4933813;29;20443;-72
2023/01/11 08:44:58;;;;;;;0.95;0.45;;;12.20;99.90;;;;;;4920111;29;20178;-75
2023/01/11 08:47:24;;;;;;;1.00;0.50;;;12.20;99.90;;;;;;4919300;29;20193;-73
2023/01/11 08:49:51;;;;;;;1.55;0.40;;;12.30;99.90;;;;;;4918664;29;20198;-75
2023/01/11 08:52:17;;;;;;;0.70;0.30;;;12.20;99.90;;;;;;4922092;29;20177;-76
2023/01/11 08:54:43;;;;;;;0.70;0.30;;;12.20;99.90;;;;;;4919717;29;20185;-73
2023/01/11 08:57:09;;;;;;;0.70;0.35;;;12.20;99.90;;;;;;4918437;29;20237;-75
2023/01/11 08:59:37;;;;;;;1.15;0.70;;;12.20;99.90;;;;;;4918511;29;20272;-75
2023/01/11 09:02:04;;;;;;;1.00;0.60;;;12.20;99.90;;;;;;4918836;29;20206;-76
2023/01/11 09:04:30;;;;;;;0.55;0.50;;;12.20;99.90;;;;;;4919317;29;20296;-75
2023/01/11 09:06:58;;;;;;;0.63;0.45;;;12.20;99.90;;;;;;4919438;29;20184;-74
2023/01/11 09:09:26;;;;;;;0.40;0.35;;;12.20;99.90;;;;;;4918629;29;20182;-73
2023/01/11 09:11:59;;;;;;;1.05;0.43;;;12.30;99.90;;;;;;4918832;29;20264;-73
2023/01/11 09:14:26;;;;;;;1.65;0.35;;;12.20;99.90;;;;;;4918977;29;20178;-72
2023/01/11 09:16:55;;;;;;;1.20;0.35;;;12.30;99.90;;;;;;4918646;29;20182;-75
2023/01/11 09:19:21;;;;;;;1.13;0.40;;;12.30;99.90;;;;;;4918128;29;20230;-75
2023/01/11 09:21:50;;;;;;;0.38;0.30;;;12.30;99.90;;;;;;4918886;29;20229;-76
2023/01/11 09:24:15;;;;;;;0.45;0.40;;;12.30;99.90;;;;;;4919271;29;20178;-75
2023/01/11 09:26:46;;;;;;;0.85;0.40;;;12.30;99.90;;;;;;4919992;29;20200;-76
2023/01/11 09:29:17;;;;;;;0.38;0.30;;;12.30;99.90;;;;;;4919156;29;20217;-77
2023/01/11 09:31:43;;;;;;;0.70;0.50;;;12.30;99.90;;;;;;4918881;29;20277;-75
2023/01/11 09:34:11;;;;;;;0.93;0.50;;;12.30;99.90;;;;;;4918973;29;20221;-75
2023/01/11 09:36:39;;;;;;;1.33;0.50;;;12.30;99.90;;;;;;4917133;29;20228;-74
2023/01/11 09:39:14;;;;;;;0.90;0.40;;;12.30;99.90;;;;;;4917016;29;20218;-74
2023/01/11 09:42:15;;;;;;;0.45;0.45;;;12.30;99.90;;;;;;4918022;29;20399;-74
2023/01/11 09:44:50;;;;;;;1.02;0.50;;;12.30;99.90;;;;;;4918737;29;20189;-74
2023/01/11 09:47:22;;;;;;;1.40;0.70;;;12.40;99.90;;;;;;4917097;29;20236;-74
2023/01/11 09:49:57;;;;;;;0.47;0.40;;;12.30;99.90;;;;;;4928030;29;20178;-75
2023/01/11 09:52:35;;;;;;;0.60;0.47;;;12.30;99.90;;;;;;4907488;29;20201;-74
2023/01/11 09:55:03;;;;;;;0.80;0.57;;;12.30;99.90;;;;;;4917984;29;20288;-74
2023/01/11 09:58:06;;;;;;;0.73;0.50;;;12.30;99.90;;;;;;4918434;29;20195;-74
2023/01/11 10:01:09;;;;;;;1.33;0.60;;;12.30;99.90;;;;;;4899712;29;20190;-73
2023/01/11 10:03:41;;;;;;;1.10;0.57;;;12.30;99.90;;;;;;4917103;29;20196;-75
2023/01/11 10:06:13;;;;;;;0.82;0.50;;;12.30;99.90;;;;;;4919372;29;20182;-74
2023/01/11 10:09:27;;;;;;;1.13;0.40;;;12.30;99.90;;;;;;4921880;29;20212;-71
2023/01/11 10:12:05;;;;;;;1.33;0.60;;;12.30;99.90;;;;;;4854937;28;20210;-67
2023/01/11 10:15:18;;;;;;;1.60;0.65;;;12.40;99.90;;;;;;4939475;28;20174;-67
2023/01/11 10:17:57;;;;;;;1.60;0.82;;;12.40;99.90;;;;;;4914616;29;20281;-74
2023/01/11 10:20:38;;;;;;;2.45;0.90;;;12.40;99.90;;;;;;4918027;29;20181;-75
2023/01/11 10:23:27;;;;;;;1.00;0.68;;;12.40;99.90;;;;;;4917542;29;20206;-74
2023/01/11 10:26:03;;;;;;;1.27;0.80;;;12.40;99.90;;;;;;4905284;29;20249;-74
2023/01/11 10:28:42;;;;;;;2.30;0.80;;;12.40;99.90;;;;;;4918036;29;20225;-73
2023/01/11 10:34:55;;;;;;;2.03;0.90;;;12.40;99.90;;;;;;4904952;29;20190;-74
2023/01/11 10:40:39;;;;;;;3.90;1.10;;;12.20;99.90;;;;;;4918562;29;20192;-73
2023/01/11 10:43:24;;;;;;;2.45;1.10;;;12.20;99.90;;;;;;4913247;29;20318;-74
2023/01/11 10:46:00;;;;;;;7.05;1.60;;;12.20;99.90;;;;;;4913798;29;20202;-72
2023/01/11 10:48:33;;;;;;;4.72;1.65;;;12.20;99.90;;;;;;4917227;29;20198;-72
2023/01/11 10:51:30;;;;;;;5.45;1.45;;;12.20;99.90;;;;;;4898932;29;20187;-74
2023/01/11 10:54:20;;;;;;;4.03;1.60;;;12.20;99.90;;;;;;4914656;29;20273;-73
2023/01/11 10:56:59;;;;;;;8.40;1.90;;;12.20;99.90;;;;;;4918089;29;20292;-73
2023/01/11 10:59:59;;;;;;;7.82;2.10;;;12.20;99.90;;;;;;4917721;29;20212;-73
2023/01/11 11:02:33;;;;;;;6.72;2.10;;;12.20;99.90;;;;;;4916650;29;20305;-73
2023/01/11 11:05:18;;;;;;;5.28;2.13;;;12.30;99.90;;;;;;4917218;29;20174;-73
2023/01/11 11:08:08;;;;;;;5.75;1.70;;;12.30;99.90;;;;;;4916217;29;20189;-69
2023/01/11 11:10:59;;;;;;;7.43;2.45;;;12.30;99.90;;;;;;4909485;29;20273;-74
2023/01/11 11:13:42;;;;;;;5.65;2.15;;;12.30;99.90;;;;;;4904945;29;20243;-72
2023/01/11 11:16:19;;;;;;;5.95;1.73;;;12.40;99.90;;;;;;4918259;29;20241;-72
2023/01/11 11:18:45;;;;;;;5.78;2.17;;;12.40;99.90;;;;;;4914236;29;20216;-73
2023/01/11 11:21:22;;;;;;;8.38;1.90;;;12.40;99.90;;;;;;4916867;29;20205;-73
2023/01/11 11:23:55;;;;;;;6.53;2.10;;;12.40;99.90;;;;;;4916707;29;20198;-72
2023/01/11 11:26:26;;;;;;;6.72;1.98;;;12.40;99.90;;;;;;4914098;29;20181;-72
2023/01/11 11:29:01;;;;;;;5.88;1.90;;;12.40;99.90;;;;;;4929531;29;20213;-72
2023/01/11 11:31:28;;;;;;;6.30;2.25;;;12.50;99.90;;;;;;4916983;29;20245;-73
2023/01/11 11:33:57;;;;;;;5.70;1.60;;;12.50;99.90;;;;;;4916964;29;20182;-72
2023/01/11 11:36:26;;;;;;;6.32;1.75;;;12.50;99.90;;;;;;4916859;29;20280;-72
2023/01/11 11:39:17;;;;;;;6.63;2.05;;;12.60;99.90;;;;;;4917152;29;20204;-73
2023/01/11 11:41:57;;;;;;;4.00;1.70;;;12.60;99.90;;;;;;4917017;29;20364;-72
2023/01/11 11:44:26;;;;;;;6.82;1.83;;;12.60;99.90;;;;;;4917106;29;20252;-72
2023/01/11 11:47:03;;;;;;;8.68;2.08;;;12.60;99.90;;;;;;4916858;29;20234;-70
2023/01/11 11:49:31;;;;;;;5.78;2.08;;;12.60;99.90;;;;;;4924482;29;20173;-71
2023/01/11 11:51:59;;;;;;;4.88;1.60;;;12.60;99.90;;;;;;4936394;29;20185;-72
2023/01/11 11:54:52;;;;;;;6.13;1.73;;;12.60;99.90;;;;;;4936133;29;20188;-72
2023/01/11 11:57:28;;;;;;;5.20;1.98;;;12.60;99.90;;;;;;4913473;29;20182;-72
2023/01/11 12:00:21;;;;;;;4.32;1.35;;;12.70;99.90;;;;;;4913773;29;20222;-72
2023/01/11 12:03:09;;;;;;;8.35;1.83;;;12.60;99.90;;;;;;4898177;29;20210;-72
2023/01/11 12:05:46;;;;;;;8.10;1.60;;;12.60;99.90;;;;;;4914596;29;20199;-69
2023/01/11 12:08:16;;;;;;;6.55;1.35;;;12.60;99.90;;;;;;4911543;29;20181;-72
2023/01/11 12:10:48;;;;;;;4.50;1.42;;;12.60;99.90;;;;;;4916416;29;20355;-71
2023/01/11 12:13:27;;;;;;;5.32;1.60;;;12.60;99.90;;;;;;4913230;29;20205;-72
2023/01/11 12:15:58;;;;;;;5.88;1.33;;;12.60;99.90;;;;;;4919681;29;20203;-72
2023/01/11 12:18:40;;;;;;;5.68;1.65;;;12.60;99.90;;;;;;4915413;29;20337;-71
2023/01/11 12:21:17;;;;;;;4.53;1.70;;;12.60;99.90;;;;;;4919599;29;20201;-70
2023/01/11 12:23:43;;;;;;;7.18;1.73;;;12.50;99.90;;;;;;4919894;29;20186;-72
2023/01/11 12:26:17;;;;;;;6.70;1.45;;;12.50;99.90;;;;;;4919727;29;20186;-72
2023/01/11 12:28:58;;;;;;;5.95;1.42;;;12.50;99.90;;;;;;4919536;29;20197;-73
2023/01/11 12:31:29;;;;;;;4.97;1.77;;;12.50;99.90;;;;;;4918706;29;20182;-71
2023/01/11 12:34:08;;;;;;;4.28;1.48;;;12.50;99.90;;;;;;4920499;29;20182;-72
2023/01/11 12:37:00;;;;;;;4.97;1.55;;;12.40;99.90;;;;;;4919583;29;20422;-72
2023/01/11 12:39:37;;;;;;;4.75;1.55;;;12.40;99.90;;;;;;4917710;29;20186;-71
2023/01/11 12:42:40;;;;;;;4.93;1.60;;;12.40;99.90;;;;;;4902028;29;20238;-73
2023/01/11 12:45:34;;;;;;;4.53;1.35;;;12.40;99.90;;;;;;4889008;29;20198;-72
2023/01/11 12:48:20;;;;;;;6.18;1.67;;;12.30;99.90;;;;;;4918861;29;20248;-72
2023/01/11 12:51:31;;;;;;;3.00;1.30;;;12.30;99.90;;;;;;4917328;29;20269;-71
2023/01/11 12:54:24;;;;;;;6.65;1.60;;;12.30;99.90;;;;;;4903680;29;20493;-71
2023/01/11 12:57:22;;;;;;;6.10;1.67;;;12.20;99.90;;;;;;4919491;29;20205;-73
2023/01/11 13:00:21;;;;;;;5.97;1.90;;;12.20;99.90;;;;;;4918893;29;20202;-72
2023/01/11 13:03:41;;;;;;;7.53;1.67;;;12.20;99.90;;;;;;4919997;29;20214;-72
2023/01/11 13:06:43;;;;;;;4.32;1.40;;;12.10;99.90;;;;;;4807237;29;20182;-73
2023/01/11 13:09:38;;;;;;;5.43;1.52;;;12.10;99.90;;;;;;4919738;29;20178;-72
2023/01/11 13:12:16;;;;;;;7.38;1.88;;;12.10;99.90;;;;;;4927329;29;20182;-73
2023/01/11 13:14:51;;;;;;;5.60;1.55;;;12.10;99.90;;;;;;4912683;29;20174;-72
2023/01/11 13:17:32;;;;;;;3.25;1.17;;;12.10;99.90;;;;;;4913527;29;20213;-70
2023/01/11 13:20:21;;;;;;;4.82;1.50;;;12.00;99.90;;;;;;4916735;29;20182;-71
2023/01/11 13:23:02;;;;;;;4.35;1.35;;;12.10;99.90;;;;;;4919057;29;20205;-72
2023/01/11 13:25:34;;;;;;;5.05;1.80;;;12.10;99.90;;;;;;4919021;29;20210;-72
2023/01/11 13:28:10;;;;;;;5.68;1.70;;;12.10;99.90;;;;;;4911877;29;20174;-71
2023/01/11 13:30:45;;;;;;;8.55;1.90;;;12.10;99.90;;;;;;4918314;29;20174;-71
2023/01/11 13:33:18;;;;;;;6.60;1.40;;;12.10;99.90;;;;;;4918460;29;20280;-73
2023/01/11 13:36:15;;;;;;;4.70;1.55;;;12.20;99.90;;;;;;4918827;29;20182;-70
2023/01/11 13:38:47;;;;;;;8.05;1.83;;;12.20;99.90;;;;;;4916637;29;20194;-71
2023/01/11 13:41:19;;;;;;;5.85;1.70;;;12.20;99.90;;;;;;4918409;29;20281;-71
2023/01/11 13:43:56;;;;;;;6.00;1.60;;;12.20;99.90;;;;;;4919211;29;20178;-72
2023/01/11 13:46:46;;;;;;;7.32;1.75;;;12.30;99.90;;;;;;4915569;29;20269;-71
2023/01/11 13:49:30;;;;;;;5.05;1.70;;;12.40;99.90;;;;;;4913074;29;20265;-72
2023/01/11 13:52:09;;;;;;;4.32;1.50;;;12.50;99.90;;;;;;4918129;29;20198;-71